sensor_id;sensor_type;location;lat;lon;timestamp;P1;durP1;ratioP1;P2;durP2;ratioP2
7747;SDS011;3918;42.564;23.164;2023-07-24T04:02:48;20.95;;;11.23;;
7747;SDS011;3918;42.564;23.164;2023-07-24T04:05:15;19.75;;;10.63;;
7747;SDS011;3918;42.564;23.164;2023-07-24T04:07:42;24.38;;;10.65;;
7747;SDS011;3918;42.564;23.164;2023-07-24T04:10:08;20.17;;;10.00;;
7747;SDS011;3918;42.564;23.164;2023-07-24T04:12:35;19.25;;;10.40;;
7747;SDS011;3918;42.564;23.164;2023-07-24T04:15:02;20.17;;;11.05;;
7747;SDS011;3918;42.564;23.164;2023-07-24T04:17:30;20.10;;;10.65;;
7747;SDS011;3918;42.564;23.164;2023-07-24T04:19:59;21.52;;;10.73;;
7747;SDS011;3918;42.564;23.164;2023-07-24T04:22:25;20.05;;;12.05;;
7747;SDS011;3918;42.564;23.164;2023-07-24T04:24:52;20.58;;;11.27;;
7747;SDS011;3918;42.564;23.164;2023-07-24T04:27:19;21.35;;;11.95;;
7747;SDS011;3918;42.564;23.164;2023-07-24T04:29:46;21.45;;;12.80;;
7747;SDS011;3918;42.564;23.164;2023-07-24T04:32:12;19.13;;;12.52;;
7747;SDS011;3918;42.564;23.164;2023-07-24T04:34:39;17.92;;;12.05;;
7747;SDS011;3918;42.564;23.164;2023-07-24T04:37:08;20.27;;;12.23;;
7747;SDS011;3918;42.564;23.164;2023-07-24T04:39:35;18.73;;;11.95;;
7747;SDS011;3918;42.564;23.164;2023-07-24T04:42:01;18.98;;;12.38;;
7747;SDS011;3918;42.564;23.164;2023-07-24T04:44:28;22.00;;;12.82;;
7747;SDS011;3918;42.564;23.164;2023-07-24T04:46:57;20.15;;;13.40;;
7747;SDS011;3918;42.564;23.164;2023-07-24T04:49:23;20.20;;;12.80;;
7747;SDS011;3918;42.564;23.164;2023-07-24T04:51:50;20.30;;;12.95;;
7747;SDS011;3918;42.564;23.164;2023-07-24T04:54:19;18.55;;;12.73;;
7747;SDS011;3918;42.564;23.164;2023-07-24T04:56:45;19.10;;;13.45;;
7747;SDS011;3918;42.564;23.164;2023-07-24T04:59:12;21.17;;;12.95;;
7747;SDS011;3918;42.564;23.164;2023-07-24T05:01:39;22.15;;;13.98;;
7747;SDS011;3918;42.564;23.164;2023-07-24T05:04:06;19.38;;;12.98;;
7747;SDS011;3918;42.564;23.164;2023-07-24T05:06:33;20.58;;;12.80;;
7747;SDS011;3918;42.564;23.164;2023-07-24T05:09:02;19.67;;;14.43;;
7747;SDS011;3918;42.564;23.164;2023-07-24T05:11:30;20.05;;;13.40;;
7747;SDS011;3918;42.564;23.164;2023-07-24T05:13:57;20.60;;;13.60;;
7747;SDS011;3918;42.564;23.164;2023-07-24T05:16:24;25.52;;;13.32;;
7747;SDS011;3918;42.564;23.164;2023-07-24T05:18:51;17.63;;;12.57;;
7747;SDS011;3918;42.564;23.164;2023-07-24T05:21:17;17.13;;;12.32;;
7747;SDS011;3918;42.564;23.164;2023-07-24T05:23:44;17.75;;;12.90;;
7747;SDS011;3918;42.564;23.164;2023-07-24T05:26:11;24.63;;;13.00;;
7747;SDS011;3918;42.564;23.164;2023-07-24T05:28:39;20.25;;;12.48;;
7747;SDS011;3918;42.564;23.164;2023-07-24T05:31:06;18.98;;;12.35;;
7747;SDS011;3918;42.564;23.164;2023-07-24T05:33:33;16.13;;;12.13;;
7747;SDS011;3918;42.564;23.164;2023-07-24T05:36:01;17.77;;;13.15;;
7747;SDS011;3918;42.564;23.164;2023-07-24T05:38:29;17.30;;;12.77;;
7747;SDS011;3918;42.564;23.164;2023-07-24T05:40:57;22.33;;;13.73;;
7747;SDS011;3918;42.564;23.164;2023-07-24T05:43:24;20.23;;;13.15;;
7747;SDS011;3918;42.564;23.164;2023-07-24T05:45:54;23.10;;;13.25;;
7747;SDS011;3918;42.564;23.164;2023-07-24T05:48:22;19.58;;;13.88;;
7747;SDS011;3918;42.564;23.164;2023-07-24T05:50:50;21.95;;;14.65;;
7747;SDS011;3918;42.564;23.164;2023-07-24T05:53:17;19.52;;;14.30;;
7747;SDS011;3918;42.564;23.164;2023-07-24T05:55:43;23.15;;;14.13;;
7747;SDS011;3918;42.564;23.164;2023-07-24T05:58:10;24.10;;;14.07;;
7747;SDS011;3918;42.564;23.164;2023-07-24T06:00:37;21.17;;;14.23;;
7747;SDS011;3918;42.564;23.164;2023-07-24T06:03:05;20.75;;;14.32;;
7747;SDS011;3918;42.564;23.164;2023-07-24T06:05:32;17.33;;;13.50;;
7747;SDS011;3918;42.564;23.164;2023-07-24T06:07:59;21.23;;;13.38;;
7747;SDS011;3918;42.564;23.164;2023-07-24T06:10:26;18.85;;;13.88;;
7747;SDS011;3918;42.564;23.164;2023-07-24T06:12:53;17.10;;;13.52;;
7747;SDS011;3918;42.564;23.164;2023-07-24T06:15:19;19.45;;;12.02;;
7747;SDS011;3918;42.564;23.164;2023-07-24T06:17:46;17.05;;;12.20;;
7747;SDS011;3918;42.564;23.164;2023-07-24T06:20:15;16.38;;;12.45;;
7747;SDS011;3918;42.564;23.164;2023-07-24T06:22:42;17.33;;;12.48;;
7747;SDS011;3918;42.564;23.164;2023-07-24T06:25:08;32.00;;;14.70;;
7747;SDS011;3918;42.564;23.164;2023-07-24T06:27:36;20.05;;;13.02;;
7747;SDS011;3918;42.564;23.164;2023-07-24T06:30:03;16.30;;;12.45;;
7747;SDS011;3918;42.564;23.164;2023-07-24T06:32:31;19.17;;;13.38;;
7747;SDS011;3918;42.564;23.164;2023-07-24T06:34:58;20.02;;;13.80;;
7747;SDS011;3918;42.564;23.164;2023-07-24T06:37:26;20.58;;;13.13;;
7747;SDS011;3918;42.564;23.164;2023-07-24T06:39:53;20.33;;;12.90;;
7747;SDS011;3918;42.564;23.164;2023-07-24T06:42:20;39.67;;;15.65;;
7747;SDS011;3918;42.564;23.164;2023-07-24T06:44:47;19.55;;;13.75;;
7747;SDS011;3918;42.564;23.164;2023-07-24T07:04:32;29.67;;;11.82;;
7747;SDS011;3918;42.564;23.164;2023-07-24T07:06:59;25.90;;;11.98;;
7747;SDS011;3918;42.564;23.164;2023-07-24T07:09:26;21.65;;;10.90;;
7747;SDS011;3918;42.564;23.164;2023-07-24T07:11:53;23.38;;;13.00;;
7747;SDS011;3918;42.564;23.164;2023-07-24T07:14:20;22.50;;;11.65;;
7747;SDS011;3918;42.564;23.164;2023-07-24T07:16:47;26.35;;;11.57;;
7747;SDS011;3918;42.564;23.164;2023-07-24T07:19:14;14.65;;;9.98;;
7747;SDS011;3918;42.564;23.164;2023-07-24T07:21:42;13.15;;;10.60;;
7747;SDS011;3918;42.564;23.164;2023-07-24T07:24:09;16.58;;;11.32;;
7747;SDS011;3918;42.564;23.164;2023-07-24T07:26:36;14.55;;;10.60;;
7747;SDS011;3918;42.564;23.164;2023-07-24T07:29:03;12.73;;;9.73;;
7747;SDS011;3918;42.564;23.164;2023-07-24T07:31:30;11.95;;;9.68;;
7747;SDS011;3918;42.564;23.164;2023-07-24T07:33:56;15.05;;;10.45;;
7747;SDS011;3918;42.564;23.164;2023-07-24T07:36:23;9.55;;;8.00;;
7747;SDS011;3918;42.564;23.164;2023-07-24T07:38:51;10.60;;;8.85;;
7747;SDS011;3918;42.564;23.164;2023-07-24T07:41:18;12.40;;;9.02;;
7747;SDS011;3918;42.564;23.164;2023-07-24T07:43:45;12.63;;;9.52;;
7747;SDS011;3918;42.564;23.164;2023-07-24T07:46:12;12.43;;;10.00;;
7747;SDS011;3918;42.564;23.164;2023-07-24T07:48:38;14.50;;;8.63;;
7747;SDS011;3918;42.564;23.164;2023-07-24T07:51:06;13.80;;;8.40;;
7747;SDS011;3918;42.564;23.164;2023-07-24T07:53:33;12.27;;;9.35;;
7747;SDS011;3918;42.564;23.164;2023-07-24T07:56:01;14.32;;;9.70;;
7747;SDS011;3918;42.564;23.164;2023-07-24T07:58:28;11.40;;;8.73;;
7747;SDS011;3918;42.564;23.164;2023-07-24T08:00:55;12.48;;;9.25;;
7747;SDS011;3918;42.564;23.164;2023-07-24T08:03:22;13.95;;;9.80;;
7747;SDS011;3918;42.564;23.164;2023-07-24T08:05:49;12.50;;;8.93;;
7747;SDS011;3918;42.564;23.164;2023-07-24T08:08:15;12.57;;;10.07;;
7747;SDS011;3918;42.564;23.164;2023-07-24T08:10:42;11.90;;;9.43;;
7747;SDS011;3918;42.564;23.164;2023-07-24T08:13:10;18.15;;;9.90;;
7747;SDS011;3918;42.564;23.164;2023-07-24T08:15:37;11.73;;;9.10;;
7747;SDS011;3918;42.564;23.164;2023-07-24T08:18:04;14.55;;;9.73;;
7747;SDS011;3918;42.564;23.164;2023-07-24T08:20:34;12.75;;;9.85;;
7747;SDS011;3918;42.564;23.164;2023-07-24T08:23:02;13.20;;;10.45;;
7747;SDS011;3918;42.564;23.164;2023-07-24T08:25:30;13.68;;;9.45;;
7747;SDS011;3918;42.564;23.164;2023-07-24T08:27:57;18.88;;;10.57;;
7747;SDS011;3918;42.564;23.164;2023-07-24T08:30:25;13.25;;;10.05;;
7747;SDS011;3918;42.564;23.164;2023-07-24T08:32:52;18.90;;;10.32;;
7747;SDS011;3918;42.564;23.164;2023-07-24T08:35:19;15.95;;;10.05;;
7747;SDS011;3918;42.564;23.164;2023-07-24T08:37:46;28.83;;;10.68;;
7747;SDS011;3918;42.564;23.164;2023-07-24T08:40:12;11.55;;;9.48;;
7747;SDS011;3918;42.564;23.164;2023-07-24T08:42:39;16.67;;;9.80;;
7747;SDS011;3918;42.564;23.164;2023-07-24T08:45:10;15.68;;;10.77;;
7747;SDS011;3918;42.564;23.164;2023-07-24T08:47:39;17.13;;;9.68;;
7747;SDS011;3918;42.564;23.164;2023-07-24T08:50:08;15.10;;;10.02;;
7747;SDS011;3918;42.564;23.164;2023-07-24T08:52:36;29.55;;;10.85;;
7747;SDS011;3918;42.564;23.164;2023-07-24T08:55:04;14.50;;;8.95;;
7747;SDS011;3918;42.564;23.164;2023-07-24T08:57:31;40.03;;;11.35;;
7747;SDS011;3918;42.564;23.164;2023-07-24T08:59:58;15.48;;;9.80;;
7747;SDS011;3918;42.564;23.164;2023-07-24T09:02:29;21.85;;;9.18;;
7747;SDS011;3918;42.564;23.164;2023-07-24T09:04:58;19.77;;;10.65;;
7747;SDS011;3918;42.564;23.164;2023-07-24T09:07:25;18.15;;;9.23;;
7747;SDS011;3918;42.564;23.164;2023-07-24T09:09:52;14.15;;;9.13;;
7747;SDS011;3918;42.564;23.164;2023-07-24T09:12:19;18.73;;;10.15;;
7747;SDS011;3918;42.564;23.164;2023-07-24T09:14:48;15.18;;;9.00;;
7747;SDS011;3918;42.564;23.164;2023-07-24T09:17:14;17.90;;;9.30;;
7747;SDS011;3918;42.564;23.164;2023-07-24T09:19:41;20.13;;;9.23;;
7747;SDS011;3918;42.564;23.164;2023-07-24T09:22:13;18.23;;;9.30;;
7747;SDS011;3918;42.564;23.164;2023-07-24T09:24:49;21.20;;;9.82;;
7747;SDS011;3918;42.564;23.164;2023-07-24T09:27:17;16.05;;;8.07;;
7747;SDS011;3918;42.564;23.164;2023-07-24T09:29:44;18.95;;;9.25;;
7747;SDS011;3918;42.564;23.164;2023-07-24T09:32:18;18.70;;;7.97;;
7747;SDS011;3918;42.564;23.164;2023-07-24T09:34:45;14.40;;;8.43;;
7747;SDS011;3918;42.564;23.164;2023-07-24T09:37:23;12.43;;;7.82;;
7747;SDS011;3918;42.564;23.164;2023-07-24T09:39:51;15.00;;;9.32;;
7747;SDS011;3918;42.564;23.164;2023-07-24T09:42:18;15.00;;;8.00;;
7747;SDS011;3918;42.564;23.164;2023-07-24T09:44:53;13.95;;;7.97;;
7747;SDS011;3918;42.564;23.164;2023-07-24T09:47:20;18.08;;;8.43;;
7747;SDS011;3918;42.564;23.164;2023-07-24T09:49:47;15.88;;;9.50;;
7747;SDS011;3918;42.564;23.164;2023-07-24T09:52:14;20.27;;;9.63;;
7747;SDS011;3918;42.564;23.164;2023-07-24T09:54:47;16.60;;;7.18;;
7747;SDS011;3918;42.564;23.164;2023-07-24T09:57:21;17.38;;;7.38;;
7747;SDS011;3918;42.564;23.164;2023-07-24T09:59:49;13.57;;;7.05;;
7747;SDS011;3918;42.564;23.164;2023-07-24T10:02:18;13.45;;;7.85;;
7747;SDS011;3918;42.564;23.164;2023-07-24T10:04:45;26.55;;;7.68;;
7747;SDS011;3918;42.564;23.164;2023-07-24T10:07:13;13.02;;;7.80;;
7747;SDS011;3918;42.564;23.164;2023-07-24T10:09:40;25.58;;;12.25;;
7747;SDS011;3918;42.564;23.164;2023-07-24T10:12:52;20.33;;;7.97;;
7747;SDS011;3918;42.564;23.164;2023-07-24T10:15:19;16.00;;;7.55;;
7747;SDS011;3918;42.564;23.164;2023-07-24T10:17:46;18.25;;;9.55;;
7747;SDS011;3918;42.564;23.164;2023-07-24T10:20:15;11.48;;;7.95;;
7747;SDS011;3918;42.564;23.164;2023-07-24T10:22:43;20.02;;;8.88;;
7747;SDS011;3918;42.564;23.164;2023-07-24T10:25:10;20.50;;;8.32;;
7747;SDS011;3918;42.564;23.164;2023-07-24T10:27:39;16.85;;;8.20;;
7747;SDS011;3918;42.564;23.164;2023-07-24T10:30:10;13.82;;;8.27;;
7747;SDS011;3918;42.564;23.164;2023-07-24T10:32:44;24.42;;;7.85;;
7747;SDS011;3918;42.564;23.164;2023-07-24T10:35:12;11.55;;;7.07;;
7747;SDS011;3918;42.564;23.164;2023-07-24T10:37:39;13.90;;;6.90;;
7747;SDS011;3918;42.564;23.164;2023-07-24T10:40:06;16.35;;;7.10;;
7747;SDS011;3918;42.564;23.164;2023-07-24T10:42:44;15.60;;;8.05;;
7747;SDS011;3918;42.564;23.164;2023-07-24T10:45:13;14.07;;;7.18;;
7747;SDS011;3918;42.564;23.164;2023-07-24T10:47:40;21.02;;;7.82;;
7747;SDS011;3918;42.564;23.164;2023-07-24T10:50:07;16.15;;;7.45;;
7747;SDS011;3918;42.564;23.164;2023-07-24T10:52:34;17.20;;;8.23;;
7747;SDS011;3918;42.564;23.164;2023-07-24T10:55:01;14.20;;;7.63;;
7747;SDS011;3918;42.564;23.164;2023-07-24T10:57:29;15.25;;;8.35;;
7747;SDS011;3918;42.564;23.164;2023-07-24T10:59:56;13.00;;;8.07;;
7747;SDS011;3918;42.564;23.164;2023-07-24T11:02:24;34.33;;;8.80;;
7747;SDS011;3918;42.564;23.164;2023-07-24T11:04:51;12.10;;;7.45;;
7747;SDS011;3918;42.564;23.164;2023-07-24T11:07:17;14.13;;;7.55;;
7747;SDS011;3918;42.564;23.164;2023-07-24T11:09:45;10.35;;;6.72;;
7747;SDS011;3918;42.564;23.164;2023-07-24T11:12:12;14.20;;;7.18;;
7747;SDS011;3918;42.564;23.164;2023-07-24T11:14:47;15.95;;;8.48;;
7747;SDS011;3918;42.564;23.164;2023-07-24T11:17:14;17.92;;;7.97;;
7747;SDS011;3918;42.564;23.164;2023-07-24T11:19:43;14.85;;;7.32;;
7747;SDS011;3918;42.564;23.164;2023-07-24T11:22:10;16.48;;;7.53;;
7747;SDS011;3918;42.564;23.164;2023-07-24T11:24:44;13.43;;;6.82;;
7747;SDS011;3918;42.564;23.164;2023-07-24T11:27:15;12.40;;;7.78;;
7747;SDS011;3918;42.564;23.164;2023-07-24T11:29:46;19.30;;;8.00;;
7747;SDS011;3918;42.564;23.164;2023-07-24T11:32:16;16.25;;;7.38;;
7747;SDS011;3918;42.564;23.164;2023-07-24T11:34:45;10.93;;;7.93;;
7747;SDS011;3918;42.564;23.164;2023-07-24T11:37:13;12.95;;;7.88;;
7747;SDS011;3918;42.564;23.164;2023-07-24T11:39:40;26.10;;;8.40;;
7747;SDS011;3918;42.564;23.164;2023-07-24T11:42:06;15.10;;;7.55;;
7747;SDS011;3918;42.564;23.164;2023-07-24T11:44:33;23.48;;;7.85;;
7747;SDS011;3918;42.564;23.164;2023-07-24T11:47:01;17.35;;;8.40;;
7747;SDS011;3918;42.564;23.164;2023-07-24T11:49:29;12.68;;;8.15;;
7747;SDS011;3918;42.564;23.164;2023-07-24T11:52:02;10.32;;;7.82;;
7747;SDS011;3918;42.564;23.164;2023-07-24T11:54:30;10.50;;;7.53;;
7747;SDS011;3918;42.564;23.164;2023-07-24T11:56:57;13.88;;;8.85;;
7747;SDS011;3918;42.564;23.164;2023-07-24T11:59:24;15.13;;;8.20;;
7747;SDS011;3918;42.564;23.164;2023-07-24T12:01:51;11.65;;;7.90;;
7747;SDS011;3918;42.564;23.164;2023-07-24T12:04:18;15.65;;;7.82;;
7747;SDS011;3918;42.564;23.164;2023-07-24T12:06:45;15.60;;;7.63;;
7747;SDS011;3918;42.564;23.164;2023-07-24T12:09:14;13.82;;;7.93;;
7747;SDS011;3918;42.564;23.164;2023-07-24T12:11:42;15.07;;;8.52;;
7747;SDS011;3918;42.564;23.164;2023-07-24T12:14:09;18.88;;;8.50;;
7747;SDS011;3918;42.564;23.164;2023-07-24T12:16:36;15.50;;;8.30;;
7747;SDS011;3918;42.564;23.164;2023-07-24T12:19:04;12.77;;;7.40;;
7747;SDS011;3918;42.564;23.164;2023-07-24T12:21:31;19.38;;;8.23;;
7747;SDS011;3918;42.564;23.164;2023-07-24T12:23:58;18.17;;;8.05;;
7747;SDS011;3918;42.564;23.164;2023-07-24T12:26:26;12.05;;;7.47;;
7747;SDS011;3918;42.564;23.164;2023-07-24T12:28:53;66.55;;;9.90;;
7747;SDS011;3918;42.564;23.164;2023-07-24T12:31:20;14.30;;;8.88;;
7747;SDS011;3918;42.564;23.164;2023-07-24T12:33:47;19.42;;;8.52;;
7747;SDS011;3918;42.564;23.164;2023-07-24T12:36:14;12.77;;;7.40;;
7747;SDS011;3918;42.564;23.164;2023-07-24T12:38:41;11.63;;;7.82;;
7747;SDS011;3918;42.564;23.164;2023-07-24T12:41:08;16.52;;;8.73;;
7747;SDS011;3918;42.564;23.164;2023-07-24T12:43:36;17.63;;;8.35;;
7747;SDS011;3918;42.564;23.164;2023-07-24T12:46:03;14.65;;;7.78;;
7747;SDS011;3918;42.564;23.164;2023-07-24T12:48:30;11.77;;;7.70;;
7747;SDS011;3918;42.564;23.164;2023-07-24T12:50:57;16.00;;;8.00;;
7747;SDS011;3918;42.564;23.164;2023-07-24T12:53:25;15.38;;;7.65;;
7747;SDS011;3918;42.564;23.164;2023-07-24T12:55:52;17.77;;;8.23;;
7747;SDS011;3918;42.564;23.164;2023-07-24T12:58:18;14.75;;;7.85;;
7747;SDS011;3918;42.564;23.164;2023-07-24T13:00:47;9.60;;;7.32;;
7747;SDS011;3918;42.564;23.164;2023-07-24T13:03:14;14.82;;;7.53;;
7747;SDS011;3918;42.564;23.164;2023-07-24T13:05:41;15.50;;;8.05;;
7747;SDS011;3918;42.564;23.164;2023-07-24T13:08:08;13.80;;;7.35;;
7747;SDS011;3918;42.564;23.164;2023-07-24T13:10:36;13.32;;;8.05;;
7747;SDS011;3918;42.564;23.164;2023-07-24T13:13:03;16.15;;;8.98;;
7747;SDS011;3918;42.564;23.164;2023-07-24T13:15:30;14.50;;;8.50;;
7747;SDS011;3918;42.564;23.164;2023-07-24T13:17:58;15.40;;;8.10;;
7747;SDS011;3918;42.564;23.164;2023-07-24T13:20:25;34.42;;;9.25;;
7747;SDS011;3918;42.564;23.164;2023-07-24T13:22:52;12.80;;;8.15;;
7747;SDS011;3918;42.564;23.164;2023-07-24T13:25:19;17.25;;;8.25;;
7747;SDS011;3918;42.564;23.164;2023-07-24T13:27:46;12.27;;;7.88;;
7747;SDS011;3918;42.564;23.164;2023-07-24T13:30:12;14.20;;;8.82;;
7747;SDS011;3918;42.564;23.164;2023-07-24T13:32:39;15.02;;;8.15;;
7747;SDS011;3918;42.564;23.164;2023-07-24T13:35:08;11.30;;;8.00;;
7747;SDS011;3918;42.564;23.164;2023-07-24T13:37:35;14.68;;;8.63;;
7747;SDS011;3918;42.564;23.164;2023-07-24T13:40:02;18.92;;;9.10;;
7747;SDS011;3918;42.564;23.164;2023-07-24T13:42:29;13.32;;;8.57;;
7747;SDS011;3918;42.564;23.164;2023-07-24T13:44:55;27.92;;;9.50;;
7747;SDS011;3918;42.564;23.164;2023-07-24T13:47:22;15.18;;;8.43;;
7747;SDS011;3918;42.564;23.164;2023-07-24T13:49:49;36.67;;;8.60;;
7747;SDS011;3918;42.564;23.164;2023-07-24T13:52:17;14.40;;;8.45;;
7747;SDS011;3918;42.564;23.164;2023-07-24T13:54:44;16.85;;;8.35;;
7747;SDS011;3918;42.564;23.164;2023-07-24T13:57:12;18.25;;;8.63;;
7747;SDS011;3918;42.564;23.164;2023-07-24T13:59:39;15.35;;;8.25;;
7747;SDS011;3918;42.564;23.164;2023-07-24T14:02:06;11.90;;;7.70;;
7747;SDS011;3918;42.564;23.164;2023-07-24T14:04:33;11.27;;;8.20;;
7747;SDS011;3918;42.564;23.164;2023-07-24T14:07:00;11.77;;;7.90;;
7747;SDS011;3918;42.564;23.164;2023-07-24T14:09:28;11.25;;;7.85;;
7747;SDS011;3918;42.564;23.164;2023-07-24T14:11:56;11.52;;;8.40;;
7747;SDS011;3918;42.564;23.164;2023-07-24T14:14:22;10.40;;;7.65;;
7747;SDS011;3918;42.564;23.164;2023-07-24T14:16:49;16.38;;;9.20;;
7747;SDS011;3918;42.564;23.164;2023-07-24T14:19:16;13.18;;;8.20;;
7747;SDS011;3918;42.564;23.164;2023-07-24T14:21:43;10.13;;;7.82;;
7747;SDS011;3918;42.564;23.164;2023-07-24T14:24:11;26.98;;;8.48;;
7747;SDS011;3918;42.564;23.164;2023-07-24T14:26:40;11.18;;;8.30;;
7747;SDS011;3918;42.564;23.164;2023-07-24T14:29:06;15.57;;;8.48;;
7747;SDS011;3918;42.564;23.164;2023-07-24T14:31:33;14.55;;;8.48;;
7747;SDS011;3918;42.564;23.164;2023-07-24T14:34:00;19.30;;;8.80;;
7747;SDS011;3918;42.564;23.164;2023-07-24T14:36:27;15.10;;;8.35;;
7747;SDS011;3918;42.564;23.164;2023-07-24T14:38:58;14.35;;;8.73;;
7747;SDS011;3918;42.564;23.164;2023-07-24T14:41:25;16.77;;;8.73;;
7747;SDS011;3918;42.564;23.164;2023-07-24T14:43:53;12.50;;;7.90;;
7747;SDS011;3918;42.564;23.164;2023-07-24T14:46:20;13.45;;;8.73;;
7747;SDS011;3918;42.564;23.164;2023-07-24T14:48:47;15.10;;;8.73;;
7747;SDS011;3918;42.564;23.164;2023-07-24T14:51:14;13.82;;;8.90;;
7747;SDS011;3918;42.564;23.164;2023-07-24T14:53:41;13.18;;;9.07;;
7747;SDS011;3918;42.564;23.164;2023-07-24T14:56:07;15.23;;;8.80;;
7747;SDS011;3918;42.564;23.164;2023-07-24T14:58:34;13.85;;;8.38;;
7747;SDS011;3918;42.564;23.164;2023-07-24T15:01:03;13.68;;;8.55;;
7747;SDS011;3918;42.564;23.164;2023-07-24T15:03:29;16.73;;;8.77;;
7747;SDS011;3918;42.564;23.164;2023-07-24T15:05:56;14.48;;;8.77;;
7747;SDS011;3918;42.564;23.164;2023-07-24T15:08:28;19.33;;;9.10;;
7747;SDS011;3918;42.564;23.164;2023-07-24T15:10:55;12.90;;;8.70;;
7747;SDS011;3918;42.564;23.164;2023-07-24T15:13:22;15.48;;;9.82;;
7747;SDS011;3918;42.564;23.164;2023-07-24T15:15:49;12.77;;;9.00;;
7747;SDS011;3918;42.564;23.164;2023-07-24T15:18:18;13.77;;;9.15;;
7747;SDS011;3918;42.564;23.164;2023-07-24T15:20:44;15.20;;;8.75;;
7747;SDS011;3918;42.564;23.164;2023-07-24T15:23:11;13.05;;;9.18;;
7747;SDS011;3918;42.564;23.164;2023-07-24T15:25:38;14.80;;;8.55;;
7747;SDS011;3918;42.564;23.164;2023-07-24T15:28:05;15.52;;;8.60;;
7747;SDS011;3918;42.564;23.164;2023-07-24T15:30:32;13.63;;;8.65;;
7747;SDS011;3918;42.564;23.164;2023-07-24T15:32:59;22.00;;;9.73;;
7747;SDS011;3918;42.564;23.164;2023-07-24T15:35:27;14.98;;;9.35;;
7747;SDS011;3918;42.564;23.164;2023-07-24T15:37:54;12.07;;;9.07;;
7747;SDS011;3918;42.564;23.164;2023-07-24T15:40:20;18.85;;;9.50;;
7747;SDS011;3918;42.564;23.164;2023-07-24T15:42:47;14.60;;;9.27;;
7747;SDS011;3918;42.564;23.164;2023-07-24T15:45:14;15.35;;;9.80;;
7747;SDS011;3918;42.564;23.164;2023-07-24T15:47:41;17.75;;;9.82;;
7747;SDS011;3918;42.564;23.164;2023-07-24T15:50:08;16.65;;;10.45;;
7747;SDS011;3918;42.564;23.164;2023-07-24T15:52:36;14.88;;;10.23;;
7747;SDS011;3918;42.564;23.164;2023-07-24T15:55:03;15.30;;;10.63;;
7747;SDS011;3918;42.564;23.164;2023-07-24T15:57:30;14.93;;;10.07;;
7747;SDS011;3918;42.564;23.164;2023-07-24T15:59:57;19.73;;;10.38;;
7747;SDS011;3918;42.564;23.164;2023-07-24T16:02:24;16.67;;;9.85;;
7747;SDS011;3918;42.564;23.164;2023-07-24T16:04:51;13.52;;;10.13;;
7747;SDS011;3918;42.564;23.164;2023-07-24T16:07:18;14.30;;;9.63;;
7747;SDS011;3918;42.564;23.164;2023-07-24T16:09:46;18.02;;;10.57;;
7747;SDS011;3918;42.564;23.164;2023-07-24T16:12:13;20.20;;;11.38;;
7747;SDS011;3918;42.564;23.164;2023-07-24T16:14:40;16.00;;;9.85;;
7747;SDS011;3918;42.564;23.164;2023-07-24T16:17:06;21.75;;;10.23;;
7747;SDS011;3918;42.564;23.164;2023-07-24T16:19:33;19.13;;;10.10;;
7747;SDS011;3918;42.564;23.164;2023-07-24T16:22:00;16.20;;;8.88;;
7747;SDS011;3918;42.564;23.164;2023-07-24T16:24:27;14.73;;;9.27;;
7747;SDS011;3918;42.564;23.164;2023-07-24T16:26:55;15.38;;;9.30;;
7747;SDS011;3918;42.564;23.164;2023-07-24T16:29:22;18.02;;;9.63;;
7747;SDS011;3918;42.564;23.164;2023-07-24T16:31:49;13.63;;;9.10;;
7747;SDS011;3918;42.564;23.164;2023-07-24T16:34:16;13.75;;;8.85;;
7747;SDS011;3918;42.564;23.164;2023-07-24T16:36:43;16.13;;;10.00;;
7747;SDS011;3918;42.564;23.164;2023-07-24T16:39:09;16.30;;;9.13;;
7747;SDS011;3918;42.564;23.164;2023-07-24T16:41:36;15.48;;;9.40;;
7747;SDS011;3918;42.564;23.164;2023-07-24T16:44:05;17.27;;;10.88;;
7747;SDS011;3918;42.564;23.164;2023-07-24T16:46:33;13.68;;;9.52;;
7747;SDS011;3918;42.564;23.164;2023-07-24T16:49:00;14.30;;;10.13;;
7747;SDS011;3918;42.564;23.164;2023-07-24T16:51:27;13.23;;;9.68;;
7747;SDS011;3918;42.564;23.164;2023-07-24T16:53:54;14.63;;;8.57;;
7747;SDS011;3918;42.564;23.164;2023-07-24T16:56:20;16.70;;;10.55;;
7747;SDS011;3918;42.564;23.164;2023-07-24T16:58:47;19.25;;;9.50;;
7747;SDS011;3918;42.564;23.164;2023-07-24T17:01:16;16.88;;;9.88;;
7747;SDS011;3918;42.564;23.164;2023-07-24T17:03:43;14.38;;;10.43;;
7747;SDS011;3918;42.564;23.164;2023-07-24T17:06:10;16.83;;;10.40;;
7747;SDS011;3918;42.564;23.164;2023-07-24T17:08:37;15.85;;;11.13;;
7747;SDS011;3918;42.564;23.164;2023-07-24T17:11:04;16.67;;;10.90;;
7747;SDS011;3918;42.564;23.164;2023-07-24T17:13:31;41.50;;;12.70;;
7747;SDS011;3918;42.564;23.164;2023-07-24T17:15:59;40.38;;;11.45;;
7747;SDS011;3918;42.564;23.164;2023-07-24T17:18:27;19.33;;;10.68;;
7747;SDS011;3918;42.564;23.164;2023-07-24T17:20:54;22.15;;;11.57;;
7747;SDS011;3918;42.564;23.164;2023-07-24T17:23:21;16.98;;;10.13;;
7747;SDS011;3918;42.564;23.164;2023-07-24T17:25:47;23.92;;;10.82;;
7747;SDS011;3918;42.564;23.164;2023-07-24T17:28:14;18.25;;;10.38;;
7747;SDS011;3918;42.564;23.164;2023-07-24T17:30:41;17.00;;;11.10;;
7747;SDS011;3918;42.564;23.164;2023-07-24T17:33:09;15.65;;;10.02;;
7747;SDS011;3918;42.564;23.164;2023-07-24T17:35:37;15.75;;;9.93;;
7747;SDS011;3918;42.564;23.164;2023-07-24T17:38:04;17.40;;;10.48;;
7747;SDS011;3918;42.564;23.164;2023-07-24T17:40:31;18.58;;;10.35;;
7747;SDS011;3918;42.564;23.164;2023-07-24T17:43:01;17.33;;;10.30;;
7747;SDS011;3918;42.564;23.164;2023-07-24T17:45:28;15.85;;;10.30;;
7747;SDS011;3918;42.564;23.164;2023-07-24T17:47:55;17.88;;;9.93;;
7747;SDS011;3918;42.564;23.164;2023-07-24T17:50:22;15.88;;;10.15;;
7747;SDS011;3918;42.564;23.164;2023-07-24T17:52:50;16.50;;;9.73;;
7747;SDS011;3918;42.564;23.164;2023-07-24T17:55:17;14.82;;;9.77;;
7747;SDS011;3918;42.564;23.164;2023-07-24T17:57:44;15.98;;;9.38;;
7747;SDS011;3918;42.564;23.164;2023-07-24T18:00:14;14.00;;;8.88;;
7747;SDS011;3918;42.564;23.164;2023-07-24T18:02:42;12.63;;;9.43;;
7747;SDS011;3918;42.564;23.164;2023-07-24T18:05:09;13.13;;;8.65;;
7747;SDS011;3918;42.564;23.164;2023-07-24T18:07:36;16.00;;;9.82;;
7747;SDS011;3918;42.564;23.164;2023-07-24T18:10:06;16.00;;;10.27;;
7747;SDS011;3918;42.564;23.164;2023-07-24T18:12:33;14.25;;;8.10;;
7747;SDS011;3918;42.564;23.164;2023-07-24T18:15:00;14.77;;;8.88;;
7747;SDS011;3918;42.564;23.164;2023-07-24T18:17:27;15.93;;;9.45;;
7747;SDS011;3918;42.564;23.164;2023-07-24T18:19:54;15.18;;;9.38;;
7747;SDS011;3918;42.564;23.164;2023-07-24T18:22:20;15.18;;;9.43;;
7747;SDS011;3918;42.564;23.164;2023-07-24T18:24:48;14.35;;;9.32;;
7747;SDS011;3918;42.564;23.164;2023-07-24T18:27:16;13.52;;;8.65;;
7747;SDS011;3918;42.564;23.164;2023-07-24T18:29:43;14.07;;;8.88;;
7747;SDS011;3918;42.564;23.164;2023-07-24T18:32:10;16.63;;;9.07;;
7747;SDS011;3918;42.564;23.164;2023-07-24T18:34:37;15.23;;;8.85;;
7747;SDS011;3918;42.564;23.164;2023-07-24T18:37:04;17.42;;;8.95;;
7747;SDS011;3918;42.564;23.164;2023-07-24T18:39:31;14.10;;;8.98;;
7747;SDS011;3918;42.564;23.164;2023-07-24T18:41:58;17.40;;;9.90;;
7747;SDS011;3918;42.564;23.164;2023-07-24T18:44:26;15.68;;;9.43;;
7747;SDS011;3918;42.564;23.164;2023-07-24T18:46:53;14.13;;;9.90;;
7747;SDS011;3918;42.564;23.164;2023-07-24T18:49:20;15.32;;;9.52;;
7747;SDS011;3918;42.564;23.164;2023-07-24T18:51:47;14.75;;;9.55;;
7747;SDS011;3918;42.564;23.164;2023-07-24T18:54:14;15.15;;;9.57;;
7747;SDS011;3918;42.564;23.164;2023-07-24T18:56:40;13.57;;;8.38;;
7747;SDS011;3918;42.564;23.164;2023-07-24T18:59:07;14.25;;;8.15;;
